sensor_id;sensor_type;location;lat;lon;timestamp;P1;durP1;ratioP1;P2;durP2;ratioP2
8098;SDS011;4092;47.876;9.372;2023-02-28T00:00:16;4.33;;;2.87;;
8098;SDS011;4092;47.876;9.372;2023-02-28T00:02:44;4.70;;;2.73;;
8098;SDS011;4092;47.876;9.372;2023-02-28T00:05:14;2.90;;;2.60;;
8098;SDS011;4092;47.876;9.372;2023-02-28T00:07:43;2.60;;;2.37;;
8098;SDS011;4092;47.876;9.372;2023-02-28T00:10:11;3.70;;;2.77;;
8098;SDS011;4092;47.876;9.372;2023-02-28T00:12:39;3.60;;;3.17;;
8098;SDS011;4092;47.876;9.372;2023-02-28T00:15:07;3.20;;;2.40;;
8098;SDS011;4092;47.876;9.372;2023-02-28T00:17:35;3.77;;;3.43;;
8098;SDS011;4092;47.876;9.372;2023-02-28T00:20:02;3.00;;;2.30;;
8098;SDS011;4092;47.876;9.372;2023-02-28T00:22:34;4.23;;;2.60;;
8098;SDS011;4092;47.876;9.372;2023-02-28T00:25:02;5.90;;;3.43;;
8098;SDS011;4092;47.876;9.372;2023-02-28T00:27:30;9.70;;;2.87;;
8098;SDS011;4092;47.876;9.372;2023-02-28T00:29:57;6.30;;;2.23;;
8098;SDS011;4092;47.876;9.372;2023-02-28T00:32:24;2.93;;;2.53;;
8098;SDS011;4092;47.876;9.372;2023-02-28T00:34:51;3.40;;;3.10;;
8098;SDS011;4092;47.876;9.372;2023-02-28T00:37:18;2.27;;;2.07;;
8098;SDS011;4092;47.876;9.372;2023-02-28T00:39:46;2.40;;;1.93;;
8098;SDS011;4092;47.876;9.372;2023-02-28T00:42:13;2.97;;;2.10;;
8098;SDS011;4092;47.876;9.372;2023-02-28T00:44:40;4.83;;;2.83;;
8098;SDS011;4092;47.876;9.372;2023-02-28T00:47:07;4.80;;;3.30;;
8098;SDS011;4092;47.876;9.372;2023-02-28T00:49:34;2.00;;;1.80;;
8098;SDS011;4092;47.876;9.372;2023-02-28T00:52:01;6.87;;;3.23;;
8098;SDS011;4092;47.876;9.372;2023-02-28T00:54:29;2.30;;;2.10;;
8098;SDS011;4092;47.876;9.372;2023-02-28T00:56:57;4.60;;;2.90;;
8098;SDS011;4092;47.876;9.372;2023-02-28T00:59:25;2.23;;;1.80;;
8098;SDS011;4092;47.876;9.372;2023-02-28T01:01:52;3.80;;;2.60;;
8098;SDS011;4092;47.876;9.372;2023-02-28T01:04:19;2.20;;;2.00;;
8098;SDS011;4092;47.876;9.372;2023-02-28T01:06:46;3.30;;;1.80;;
8098;SDS011;4092;47.876;9.372;2023-02-28T01:09:13;5.93;;;2.87;;
8098;SDS011;4092;47.876;9.372;2023-02-28T01:11:40;2.60;;;2.20;;
8098;SDS011;4092;47.876;9.372;2023-02-28T01:14:10;3.00;;;2.20;;
8098;SDS011;4092;47.876;9.372;2023-02-28T01:16:39;4.73;;;2.60;;
8098;SDS011;4092;47.876;9.372;2023-02-28T01:19:06;2.80;;;2.30;;
8098;SDS011;4092;47.876;9.372;2023-02-28T01:21:33;4.23;;;2.57;;
8098;SDS011;4092;47.876;9.372;2023-02-28T01:24:01;2.83;;;2.27;;
8098;SDS011;4092;47.876;9.372;2023-02-28T01:26:28;2.50;;;1.87;;
8098;SDS011;4092;47.876;9.372;2023-02-28T01:28:55;3.77;;;2.47;;
8098;SDS011;4092;47.876;9.372;2023-02-28T01:31:24;2.63;;;1.80;;
8098;SDS011;4092;47.876;9.372;2023-02-28T01:33:52;6.50;;;2.53;;
8098;SDS011;4092;47.876;9.372;2023-02-28T01:36:19;2.43;;;2.23;;
8098;SDS011;4092;47.876;9.372;2023-02-28T01:38:49;3.20;;;2.03;;
8098;SDS011;4092;47.876;9.372;2023-02-28T01:41:18;4.03;;;2.60;;
8098;SDS011;4092;47.876;9.372;2023-02-28T01:43:53;3.00;;;2.80;;
8098;SDS011;4092;47.876;9.372;2023-02-28T01:46:29;2.40;;;2.03;;
8098;SDS011;4092;47.876;9.372;2023-02-28T01:48:59;2.70;;;2.33;;
8098;SDS011;4092;47.876;9.372;2023-02-28T01:51:30;8.43;;;2.67;;
8098;SDS011;4092;47.876;9.372;2023-02-28T01:54:04;2.70;;;2.23;;
8098;SDS011;4092;47.876;9.372;2023-02-28T01:56:38;7.10;;;2.70;;
8098;SDS011;4092;47.876;9.372;2023-02-28T01:59:11;4.07;;;1.70;;
8098;SDS011;4092;47.876;9.372;2023-02-28T02:01:42;2.87;;;2.40;;
8098;SDS011;4092;47.876;9.372;2023-02-28T02:04:09;3.87;;;2.43;;
8098;SDS011;4092;47.876;9.372;2023-02-28T02:06:37;2.50;;;2.03;;
8098;SDS011;4092;47.876;9.372;2023-02-28T02:09:06;2.07;;;1.80;;
8098;SDS011;4092;47.876;9.372;2023-02-28T02:11:34;5.07;;;2.37;;
8098;SDS011;4092;47.876;9.372;2023-02-28T02:17:13;5.23;;;2.80;;
8098;SDS011;4092;47.876;9.372;2023-02-28T02:20:04;3.67;;;2.23;;
8098;SDS011;4092;47.876;9.372;2023-02-28T02:23:01;3.43;;;2.57;;
8098;SDS011;4092;47.876;9.372;2023-02-28T02:25:49;4.17;;;2.53;;
8098;SDS011;4092;47.876;9.372;2023-02-28T02:28:24;2.20;;;2.00;;
8098;SDS011;4092;47.876;9.372;2023-02-28T02:37:15;3.13;;;2.77;;
8098;SDS011;4092;47.876;9.372;2023-02-28T02:39:54;2.50;;;1.87;;
8098;SDS011;4092;47.876;9.372;2023-02-28T02:42:29;4.03;;;2.10;;
8098;SDS011;4092;47.876;9.372;2023-02-28T02:45:06;3.13;;;2.40;;
8098;SDS011;4092;47.876;9.372;2023-02-28T02:47:36;3.73;;;3.20;;
8098;SDS011;4092;47.876;9.372;2023-02-28T02:50:07;5.70;;;2.30;;
8098;SDS011;4092;47.876;9.372;2023-02-28T02:52:39;4.00;;;2.43;;
8098;SDS011;4092;47.876;9.372;2023-02-28T02:55:11;3.33;;;2.70;;
8098;SDS011;4092;47.876;9.372;2023-02-28T02:57:42;2.33;;;2.03;;
8098;SDS011;4092;47.876;9.372;2023-02-28T03:00:14;2.03;;;1.80;;
8098;SDS011;4092;47.876;9.372;2023-02-28T03:02:43;2.60;;;2.40;;
8098;SDS011;4092;47.876;9.372;2023-02-28T03:05:14;5.57;;;3.23;;
8098;SDS011;4092;47.876;9.372;2023-02-28T03:07:46;1.70;;;1.53;;
8098;SDS011;4092;47.876;9.372;2023-02-28T03:10:29;2.70;;;2.20;;
8098;SDS011;4092;47.876;9.372;2023-02-28T03:13:02;3.70;;;2.60;;
8098;SDS011;4092;47.876;9.372;2023-02-28T03:15:54;2.73;;;2.10;;
8098;SDS011;4092;47.876;9.372;2023-02-28T03:18:32;2.60;;;2.40;;
8098;SDS011;4092;47.876;9.372;2023-02-28T03:21:11;4.70;;;2.70;;
8098;SDS011;4092;47.876;9.372;2023-02-28T03:23:48;24.93;;;3.87;;
8098;SDS011;4092;47.876;9.372;2023-02-28T03:26:22;6.10;;;2.43;;
8098;SDS011;4092;47.876;9.372;2023-02-28T03:28:53;3.73;;;2.27;;
8098;SDS011;4092;47.876;9.372;2023-02-28T03:31:29;4.10;;;2.10;;
8098;SDS011;4092;47.876;9.372;2023-02-28T03:34:01;3.50;;;2.73;;
8098;SDS011;4092;47.876;9.372;2023-02-28T03:36:34;5.10;;;2.23;;
8098;SDS011;4092;47.876;9.372;2023-02-28T03:39:09;3.23;;;2.30;;
8098;SDS011;4092;47.876;9.372;2023-02-28T03:41:41;6.40;;;3.07;;
8098;SDS011;4092;47.876;9.372;2023-02-28T03:44:16;2.23;;;1.80;;
8098;SDS011;4092;47.876;9.372;2023-02-28T03:46:48;2.17;;;2.00;;
8098;SDS011;4092;47.876;9.372;2023-02-28T03:49:22;3.00;;;2.17;;
8098;SDS011;4092;47.876;9.372;2023-02-28T03:51:54;5.13;;;2.33;;
8098;SDS011;4092;47.876;9.372;2023-02-28T03:54:25;2.27;;;2.00;;
8098;SDS011;4092;47.876;9.372;2023-02-28T03:56:57;2.97;;;2.53;;
8098;SDS011;4092;47.876;9.372;2023-02-28T03:59:30;3.13;;;2.47;;
8098;SDS011;4092;47.876;9.372;2023-02-28T04:02:02;2.70;;;2.37;;
8098;SDS011;4092;47.876;9.372;2023-02-28T04:04:29;4.70;;;2.57;;
8098;SDS011;4092;47.876;9.372;2023-02-28T04:07:02;8.57;;;2.40;;
8098;SDS011;4092;47.876;9.372;2023-02-28T04:09:32;6.77;;;2.80;;
8098;SDS011;4092;47.876;9.372;2023-02-28T04:11:59;2.10;;;1.90;;
8098;SDS011;4092;47.876;9.372;2023-02-28T04:14:26;4.43;;;3.13;;
8098;SDS011;4092;47.876;9.372;2023-02-28T04:16:53;2.97;;;2.60;;
8098;SDS011;4092;47.876;9.372;2023-02-28T04:19:20;6.07;;;2.93;;
8098;SDS011;4092;47.876;9.372;2023-02-28T04:21:47;6.43;;;2.77;;
8098;SDS011;4092;47.876;9.372;2023-02-28T04:24:18;3.47;;;2.40;;
8098;SDS011;4092;47.876;9.372;2023-02-28T04:26:47;3.57;;;3.23;;
8098;SDS011;4092;47.876;9.372;2023-02-28T04:29:18;4.60;;;2.87;;
8098;SDS011;4092;47.876;9.372;2023-02-28T04:31:46;4.10;;;2.77;;
8098;SDS011;4092;47.876;9.372;2023-02-28T04:34:13;6.23;;;2.60;;
8098;SDS011;4092;47.876;9.372;2023-02-28T04:36:40;4.00;;;2.90;;
8098;SDS011;4092;47.876;9.372;2023-02-28T04:39:07;3.13;;;2.83;;
8098;SDS011;4092;47.876;9.372;2023-02-28T04:41:37;3.17;;;2.57;;
8098;SDS011;4092;47.876;9.372;2023-02-28T04:44:04;5.20;;;3.10;;
8098;SDS011;4092;47.876;9.372;2023-02-28T04:46:31;5.10;;;2.60;;
8098;SDS011;4092;47.876;9.372;2023-02-28T04:48:58;2.93;;;2.10;;
8098;SDS011;4092;47.876;9.372;2023-02-28T04:51:25;3.23;;;2.20;;
8098;SDS011;4092;47.876;9.372;2023-02-28T04:53:52;8.50;;;4.83;;
8098;SDS011;4092;47.876;9.372;2023-02-28T04:56:19;2.60;;;2.40;;
8098;SDS011;4092;47.876;9.372;2023-02-28T04:58:48;7.23;;;4.53;;
8098;SDS011;4092;47.876;9.372;2023-02-28T05:01:17;9.13;;;3.30;;
8098;SDS011;4092;47.876;9.372;2023-02-28T05:03:49;7.07;;;2.30;;
8098;SDS011;4092;47.876;9.372;2023-02-28T05:06:17;8.80;;;5.30;;
8098;SDS011;4092;47.876;9.372;2023-02-28T05:08:44;29.67;;;11.40;;
8098;SDS011;4092;47.876;9.372;2023-02-28T05:11:13;13.47;;;6.70;;
8098;SDS011;4092;47.876;9.372;2023-02-28T05:13:45;10.93;;;4.97;;
8098;SDS011;4092;47.876;9.372;2023-02-28T05:16:14;7.07;;;3.90;;
8098;SDS011;4092;47.876;9.372;2023-02-28T05:18:42;21.20;;;10.00;;
8098;SDS011;4092;47.876;9.372;2023-02-28T05:21:21;10.83;;;6.27;;
8098;SDS011;4092;47.876;9.372;2023-02-28T05:23:51;8.77;;;5.33;;
8098;SDS011;4092;47.876;9.372;2023-02-28T05:26:18;4.80;;;4.00;;
8098;SDS011;4092;47.876;9.372;2023-02-28T05:28:45;8.00;;;4.57;;
8098;SDS011;4092;47.876;9.372;2023-02-28T05:31:14;6.93;;;4.77;;
8098;SDS011;4092;47.876;9.372;2023-02-28T05:33:41;7.47;;;4.70;;
8098;SDS011;4092;47.876;9.372;2023-02-28T05:36:08;3.50;;;3.20;;
8098;SDS011;4092;47.876;9.372;2023-02-28T05:38:35;6.13;;;4.07;;
8098;SDS011;4092;47.876;9.372;2023-02-28T05:41:04;4.80;;;2.53;;
8098;SDS011;4092;47.876;9.372;2023-02-28T05:43:32;5.30;;;3.23;;
8098;SDS011;4092;47.876;9.372;2023-02-28T05:46:03;7.47;;;3.97;;
8098;SDS011;4092;47.876;9.372;2023-02-28T05:48:31;12.83;;;4.33;;
8098;SDS011;4092;47.876;9.372;2023-02-28T05:50:58;5.60;;;3.60;;
8098;SDS011;4092;47.876;9.372;2023-02-28T05:53:25;4.57;;;2.53;;
8098;SDS011;4092;47.876;9.372;2023-02-28T05:55:53;7.43;;;3.60;;
8098;SDS011;4092;47.876;9.372;2023-02-28T05:58:20;5.23;;;2.90;;
8098;SDS011;4092;47.876;9.372;2023-02-28T06:00:47;6.87;;;3.50;;
8098;SDS011;4092;47.876;9.372;2023-02-28T06:03:15;7.20;;;4.03;;
8098;SDS011;4092;47.876;9.372;2023-02-28T06:05:44;5.30;;;3.30;;
8098;SDS011;4092;47.876;9.372;2023-02-28T06:08:10;5.70;;;3.43;;
8098;SDS011;4092;47.876;9.372;2023-02-28T06:10:38;4.73;;;2.77;;
8098;SDS011;4092;47.876;9.372;2023-02-28T06:13:05;4.97;;;3.10;;
8098;SDS011;4092;47.876;9.372;2023-02-28T06:15:32;6.77;;;3.97;;
8098;SDS011;4092;47.876;9.372;2023-02-28T06:17:59;4.43;;;3.17;;
8098;SDS011;4092;47.876;9.372;2023-02-28T06:20:28;5.43;;;3.23;;
8098;SDS011;4092;47.876;9.372;2023-02-28T06:22:55;6.27;;;2.90;;
8098;SDS011;4092;47.876;9.372;2023-02-28T06:25:23;5.30;;;3.33;;
8098;SDS011;4092;47.876;9.372;2023-02-28T06:27:51;7.17;;;4.07;;
8098;SDS011;4092;47.876;9.372;2023-02-28T06:30:18;3.20;;;2.80;;
8098;SDS011;4092;47.876;9.372;2023-02-28T06:32:52;4.40;;;3.20;;
8098;SDS011;4092;47.876;9.372;2023-02-28T06:35:19;6.00;;;2.87;;
8098;SDS011;4092;47.876;9.372;2023-02-28T06:37:48;4.27;;;3.30;;
8098;SDS011;4092;47.876;9.372;2023-02-28T06:40:15;4.90;;;3.80;;
8098;SDS011;4092;47.876;9.372;2023-02-28T06:42:42;5.30;;;2.40;;
8098;SDS011;4092;47.876;9.372;2023-02-28T06:45:09;5.63;;;3.33;;
8098;SDS011;4092;47.876;9.372;2023-02-28T06:47:37;5.47;;;3.67;;
8098;SDS011;4092;47.876;9.372;2023-02-28T06:50:05;5.13;;;4.37;;
8098;SDS011;4092;47.876;9.372;2023-02-28T06:52:33;3.00;;;2.80;;
8098;SDS011;4092;47.876;9.372;2023-02-28T06:55:04;4.40;;;2.67;;
8098;SDS011;4092;47.876;9.372;2023-02-28T06:57:32;6.30;;;3.43;;
8098;SDS011;4092;47.876;9.372;2023-02-28T07:00:03;4.60;;;3.67;;
8098;SDS011;4092;47.876;9.372;2023-02-28T07:02:32;7.27;;;3.73;;
8098;SDS011;4092;47.876;9.372;2023-02-28T07:04:59;8.30;;;4.37;;
8098;SDS011;4092;47.876;9.372;2023-02-28T07:07:26;10.37;;;6.07;;
8098;SDS011;4092;47.876;9.372;2023-02-28T07:09:53;7.87;;;4.63;;
8098;SDS011;4092;47.876;9.372;2023-02-28T07:12:22;6.57;;;4.30;;
8098;SDS011;4092;47.876;9.372;2023-02-28T07:14:48;12.40;;;4.10;;
8098;SDS011;4092;47.876;9.372;2023-02-28T07:17:15;7.17;;;4.33;;
8098;SDS011;4092;47.876;9.372;2023-02-28T07:19:42;6.87;;;4.57;;
8098;SDS011;4092;47.876;9.372;2023-02-28T07:22:09;6.30;;;3.40;;
8098;SDS011;4092;47.876;9.372;2023-02-28T07:24:36;7.77;;;4.47;;
8098;SDS011;4092;47.876;9.372;2023-02-28T07:27:04;6.67;;;4.00;;
8098;SDS011;4092;47.876;9.372;2023-02-28T07:29:32;4.10;;;2.40;;
8098;SDS011;4092;47.876;9.372;2023-02-28T07:31:59;4.80;;;3.57;;
8098;SDS011;4092;47.876;9.372;2023-02-28T07:34:26;10.13;;;4.60;;
8098;SDS011;4092;47.876;9.372;2023-02-28T07:36:54;6.43;;;3.80;;
8098;SDS011;4092;47.876;9.372;2023-02-28T07:39:21;7.33;;;3.47;;
8098;SDS011;4092;47.876;9.372;2023-02-28T07:41:48;5.83;;;3.50;;
8098;SDS011;4092;47.876;9.372;2023-02-28T07:44:15;12.53;;;4.40;;
8098;SDS011;4092;47.876;9.372;2023-02-28T07:46:44;8.87;;;4.63;;
8098;SDS011;4092;47.876;9.372;2023-02-28T07:49:11;8.57;;;4.17;;
8098;SDS011;4092;47.876;9.372;2023-02-28T07:51:38;5.23;;;3.87;;
8098;SDS011;4092;47.876;9.372;2023-02-28T07:54:04;11.40;;;3.90;;
8098;SDS011;4092;47.876;9.372;2023-02-28T07:56:31;7.30;;;4.83;;
8098;SDS011;4092;47.876;9.372;2023-02-28T07:58:58;3.90;;;3.50;;
8098;SDS011;4092;47.876;9.372;2023-02-28T08:01:26;9.50;;;4.63;;
8098;SDS011;4092;47.876;9.372;2023-02-28T08:03:55;5.37;;;4.87;;
8098;SDS011;4092;47.876;9.372;2023-02-28T08:06:22;9.63;;;4.83;;
8098;SDS011;4092;47.876;9.372;2023-02-28T08:08:50;7.30;;;4.97;;
8098;SDS011;4092;47.876;9.372;2023-02-28T08:11:18;5.57;;;3.73;;
8098;SDS011;4092;47.876;9.372;2023-02-28T08:13:45;4.97;;;4.20;;
8098;SDS011;4092;47.876;9.372;2023-02-28T08:16:13;15.73;;;4.93;;
8098;SDS011;4092;47.876;9.372;2023-02-28T08:18:46;6.20;;;3.77;;
8098;SDS011;4092;47.876;9.372;2023-02-28T08:21:14;10.13;;;5.30;;
8098;SDS011;4092;47.876;9.372;2023-02-28T08:23:41;8.20;;;5.73;;
8098;SDS011;4092;47.876;9.372;2023-02-28T08:26:08;8.27;;;3.67;;
8098;SDS011;4092;47.876;9.372;2023-02-28T08:28:36;7.80;;;4.20;;
8098;SDS011;4092;47.876;9.372;2023-02-28T08:31:06;17.37;;;6.43;;
8098;SDS011;4092;47.876;9.372;2023-02-28T08:33:35;5.53;;;5.03;;
8098;SDS011;4092;47.876;9.372;2023-02-28T08:36:02;8.40;;;5.20;;
8098;SDS011;4092;47.876;9.372;2023-02-28T08:38:31;5.87;;;3.93;;
8098;SDS011;4092;47.876;9.372;2023-02-28T08:40:58;7.00;;;3.40;;
8098;SDS011;4092;47.876;9.372;2023-02-28T08:43:25;4.90;;;3.30;;
8098;SDS011;4092;47.876;9.372;2023-02-28T08:45:53;7.10;;;3.73;;
8098;SDS011;4092;47.876;9.372;2023-02-28T08:48:21;6.03;;;4.50;;
8098;SDS011;4092;47.876;9.372;2023-02-28T08:50:54;8.47;;;5.20;;
8098;SDS011;4092;47.876;9.372;2023-02-28T08:53:22;6.67;;;5.00;;
8098;SDS011;4092;47.876;9.372;2023-02-28T08:55:56;6.50;;;4.23;;
8098;SDS011;4092;47.876;9.372;2023-02-28T08:58:24;8.73;;;7.20;;
8098;SDS011;4092;47.876;9.372;2023-02-28T09:00:51;8.73;;;3.63;;
8098;SDS011;4092;47.876;9.372;2023-02-28T09:03:19;9.07;;;5.60;;
8098;SDS011;4092;47.876;9.372;2023-02-28T09:05:56;12.97;;;7.27;;
8098;SDS011;4092;47.876;9.372;2023-02-28T09:08:26;15.47;;;8.00;;
8098;SDS011;4092;47.876;9.372;2023-02-28T09:10:56;6.43;;;2.93;;
8098;SDS011;4092;47.876;9.372;2023-02-28T09:13:24;9.20;;;5.03;;
8098;SDS011;4092;47.876;9.372;2023-02-28T09:15:51;8.27;;;4.30;;
8098;SDS011;4092;47.876;9.372;2023-02-28T09:18:19;10.00;;;4.70;;
8098;SDS011;4092;47.876;9.372;2023-02-28T09:20:46;8.00;;;3.67;;
8098;SDS011;4092;47.876;9.372;2023-02-28T09:23:13;7.93;;;4.03;;
8098;SDS011;4092;47.876;9.372;2023-02-28T09:25:44;6.83;;;3.90;;
8098;SDS011;4092;47.876;9.372;2023-02-28T09:28:14;6.90;;;3.70;;
8098;SDS011;4092;47.876;9.372;2023-02-28T09:30:42;11.23;;;4.50;;
8098;SDS011;4092;47.876;9.372;2023-02-28T09:33:10;10.67;;;5.13;;
8098;SDS011;4092;47.876;9.372;2023-02-28T09:35:37;10.60;;;5.10;;
8098;SDS011;4092;47.876;9.372;2023-02-28T09:38:04;5.73;;;3.93;;
8098;SDS011;4092;47.876;9.372;2023-02-28T09:40:34;7.27;;;3.90;;
8098;SDS011;4092;47.876;9.372;2023-02-28T09:43:03;10.17;;;4.40;;
8098;SDS011;4092;47.876;9.372;2023-02-28T09:45:33;7.97;;;4.43;;
8098;SDS011;4092;47.876;9.372;2023-02-28T09:48:06;11.40;;;3.27;;
8098;SDS011;4092;47.876;9.372;2023-02-28T09:50:45;8.10;;;4.73;;
8098;SDS011;4092;47.876;9.372;2023-02-28T09:53:16;9.20;;;4.53;;
8098;SDS011;4092;47.876;9.372;2023-02-28T09:55:48;10.87;;;3.60;;
8098;SDS011;4092;47.876;9.372;2023-02-28T09:58:20;10.70;;;4.20;;
8098;SDS011;4092;47.876;9.372;2023-02-28T10:00:56;6.00;;;4.63;;
8098;SDS011;4092;47.876;9.372;2023-02-28T10:03:30;8.60;;;4.70;;
8098;SDS011;4092;47.876;9.372;2023-02-28T10:06:04;5.47;;;3.93;;
8098;SDS011;4092;47.876;9.372;2023-02-28T10:08:36;10.53;;;5.80;;
8098;SDS011;4092;47.876;9.372;2023-02-28T10:11:11;11.83;;;6.83;;
8098;SDS011;4092;47.876;9.372;2023-02-28T10:13:45;7.40;;;4.77;;
8098;SDS011;4092;47.876;9.372;2023-02-28T10:16:22;8.97;;;5.30;;
8098;SDS011;4092;47.876;9.372;2023-02-28T10:18:54;8.03;;;5.83;;
8098;SDS011;4092;47.876;9.372;2023-02-28T10:21:28;9.97;;;3.70;;
8098;SDS011;4092;47.876;9.372;2023-02-28T10:24:02;6.40;;;4.10;;
8098;SDS011;4092;47.876;9.372;2023-02-28T10:26:37;6.20;;;3.70;;
8098;SDS011;4092;47.876;9.372;2023-02-28T10:29:04;11.20;;;5.83;;
8098;SDS011;4092;47.876;9.372;2023-02-28T10:31:35;6.47;;;3.57;;
8098;SDS011;4092;47.876;9.372;2023-02-28T10:34:02;9.57;;;5.10;;
8098;SDS011;4092;47.876;9.372;2023-02-28T10:36:31;5.50;;;3.90;;
8098;SDS011;4092;47.876;9.372;2023-02-28T10:38:58;14.30;;;6.93;;
8098;SDS011;4092;47.876;9.372;2023-02-28T10:41:27;11.60;;;5.50;;
8098;SDS011;4092;47.876;9.372;2023-02-28T10:44:13;8.00;;;4.90;;
8098;SDS011;4092;47.876;9.372;2023-02-28T10:46:46;9.03;;;5.40;;
8098;SDS011;4092;47.876;9.372;2023-02-28T10:49:15;8.93;;;5.70;;
8098;SDS011;4092;47.876;9.372;2023-02-28T10:51:46;6.73;;;4.20;;
8098;SDS011;4092;47.876;9.372;2023-02-28T10:54:15;6.07;;;3.90;;
8098;SDS011;4092;47.876;9.372;2023-02-28T10:56:43;9.60;;;5.87;;
8098;SDS011;4092;47.876;9.372;2023-02-28T10:59:25;10.80;;;5.33;;
8098;SDS011;4092;47.876;9.372;2023-02-28T11:01:55;7.70;;;4.47;;
8098;SDS011;4092;47.876;9.372;2023-02-28T11:04:33;9.47;;;4.13;;
8098;SDS011;4092;47.876;9.372;2023-02-28T11:07:05;9.20;;;5.50;;
8098;SDS011;4092;47.876;9.372;2023-02-28T11:09:44;6.70;;;3.60;;
8098;SDS011;4092;47.876;9.372;2023-02-28T11:12:19;15.23;;;5.67;;
8098;SDS011;4092;47.876;9.372;2023-02-28T11:14:48;8.07;;;3.80;;
8098;SDS011;4092;47.876;9.372;2023-02-28T11:17:20;18.53;;;6.43;;
8098;SDS011;4092;47.876;9.372;2023-02-28T11:19:51;11.60;;;6.17;;
8098;SDS011;4092;47.876;9.372;2023-02-28T11:22:22;8.83;;;4.83;;
8098;SDS011;4092;47.876;9.372;2023-02-28T11:24:54;7.70;;;5.07;;
8098;SDS011;4092;47.876;9.372;2023-02-28T11:30:24;8.90;;;6.07;;
8098;SDS011;4092;47.876;9.372;2023-02-28T11:32:54;6.00;;;4.00;;
8098;SDS011;4092;47.876;9.372;2023-02-28T11:35:23;12.07;;;4.83;;
8098;SDS011;4092;47.876;9.372;2023-02-28T11:37:53;7.17;;;3.37;;
8098;SDS011;4092;47.876;9.372;2023-02-28T11:40:21;9.20;;;5.43;;
8098;SDS011;4092;47.876;9.372;2023-02-28T11:42:57;9.13;;;5.43;;
8098;SDS011;4092;47.876;9.372;2023-02-28T11:45:37;9.13;;;4.67;;
8098;SDS011;4092;47.876;9.372;2023-02-28T11:48:14;11.07;;;4.67;;
8098;SDS011;4092;47.876;9.372;2023-02-28T11:50:49;7.40;;;4.23;;
8098;SDS011;4092;47.876;9.372;2023-02-28T11:53:30;9.40;;;4.00;;
8098;SDS011;4092;47.876;9.372;2023-02-28T11:56:20;7.83;;;5.00;;
8098;SDS011;4092;47.876;9.372;2023-02-28T11:58:54;10.90;;;5.13;;
8098;SDS011;4092;47.876;9.372;2023-02-28T12:01:34;12.40;;;5.60;;
8098;SDS011;4092;47.876;9.372;2023-02-28T12:04:14;8.63;;;5.03;;
8098;SDS011;4092;47.876;9.372;2023-02-28T12:06:52;13.47;;;6.47;;
8098;SDS011;4092;47.876;9.372;2023-02-28T12:09:34;7.70;;;3.97;;
8098;SDS011;4092;47.876;9.372;2023-02-28T12:12:14;4.77;;;3.37;;
8098;SDS011;4092;47.876;9.372;2023-02-28T12:14:57;7.20;;;4.50;;
8098;SDS011;4092;47.876;9.372;2023-02-28T12:17:44;10.13;;;5.20;;
8098;SDS011;4092;47.876;9.372;2023-02-28T12:20:21;14.90;;;4.90;;
8098;SDS011;4092;47.876;9.372;2023-02-28T12:22:55;13.33;;;6.23;;
8098;SDS011;4092;47.876;9.372;2023-02-28T12:25:43;7.50;;;4.57;;
8098;SDS011;4092;47.876;9.372;2023-02-28T12:28:21;11.20;;;6.30;;
8098;SDS011;4092;47.876;9.372;2023-02-28T12:30:53;10.30;;;5.70;;
8098;SDS011;4092;47.876;9.372;2023-02-28T12:33:24;9.83;;;4.50;;
8098;SDS011;4092;47.876;9.372;2023-02-28T12:36:01;12.43;;;6.50;;
8098;SDS011;4092;47.876;9.372;2023-02-28T12:38:34;8.10;;;4.80;;
8098;SDS011;4092;47.876;9.372;2023-02-28T12:41:06;12.00;;;5.37;;
8098;SDS011;4092;47.876;9.372;2023-02-28T12:43:40;12.40;;;6.03;;
8098;SDS011;4092;47.876;9.372;2023-02-28T12:46:10;10.87;;;5.37;;
8098;SDS011;4092;47.876;9.372;2023-02-28T12:48:43;8.67;;;4.80;;
8098;SDS011;4092;47.876;9.372;2023-02-28T12:51:15;9.83;;;5.70;;
8098;SDS011;4092;47.876;9.372;2023-02-28T12:53:54;16.40;;;6.00;;
8098;SDS011;4092;47.876;9.372;2023-02-28T12:56:31;17.37;;;6.10;;
8098;SDS011;4092;47.876;9.372;2023-02-28T12:59:04;6.27;;;4.73;;
8098;SDS011;4092;47.876;9.372;2023-02-28T13:01:42;17.37;;;7.30;;
8098;SDS011;4092;47.876;9.372;2023-02-28T13:04:47;16.70;;;5.33;;
8098;SDS011;4092;47.876;9.372;2023-02-28T13:13:19;10.20;;;5.83;;
8098;SDS011;4092;47.876;9.372;2023-02-28T13:15:58;10.97;;;6.00;;
8098;SDS011;4092;47.876;9.372;2023-02-28T13:18:28;13.67;;;5.80;;
8098;SDS011;4092;47.876;9.372;2023-02-28T13:20:58;9.80;;;6.37;;
8098;SDS011;4092;47.876;9.372;2023-02-28T13:23:52;11.43;;;4.63;;
8098;SDS011;4092;47.876;9.372;2023-02-28T13:29:37;9.63;;;5.10;;
8098;SDS011;4092;47.876;9.372;2023-02-28T13:32:19;12.80;;;6.90;;
8098;SDS011;4092;47.876;9.372;2023-02-28T13:38:13;9.77;;;5.60;;
8098;SDS011;4092;47.876;9.372;2023-02-28T13:40:51;6.20;;;4.80;;
8098;SDS011;4092;47.876;9.372;2023-02-28T13:43:18;7.23;;;5.63;;
8098;SDS011;4092;47.876;9.372;2023-02-28T13:48:38;12.43;;;6.00;;
8098;SDS011;4092;47.876;9.372;2023-02-28T13:54:06;13.53;;;5.60;;
8098;SDS011;4092;47.876;9.372;2023-02-28T13:56:46;12.40;;;5.73;;
8098;SDS011;4092;47.876;9.372;2023-02-28T13:59:20;12.30;;;6.77;;
8098;SDS011;4092;47.876;9.372;2023-02-28T14:01:56;13.20;;;6.37;;
8098;SDS011;4092;47.876;9.372;2023-02-28T14:07:27;6.87;;;3.90;;
8098;SDS011;4092;47.876;9.372;2023-02-28T14:09:59;11.43;;;6.30;;
8098;SDS011;4092;47.876;9.372;2023-02-28T14:15:30;10.80;;;6.33;;
8098;SDS011;4092;47.876;9.372;2023-02-28T14:18:20;11.17;;;5.53;;
8098;SDS011;4092;47.876;9.372;2023-02-28T14:20:52;9.67;;;5.50;;
8098;SDS011;4092;47.876;9.372;2023-02-28T14:23:30;8.73;;;4.97;;
8098;SDS011;4092;47.876;9.372;2023-02-28T14:26:26;7.30;;;5.33;;
8098;SDS011;4092;47.876;9.372;2023-02-28T14:29:11;7.50;;;4.63;;
8098;SDS011;4092;47.876;9.372;2023-02-28T14:31:53;12.50;;;6.13;;
8098;SDS011;4092;47.876;9.372;2023-02-28T14:34:32;9.23;;;5.80;;
8098;SDS011;4092;47.876;9.372;2023-02-28T14:37:08;10.30;;;6.90;;
8098;SDS011;4092;47.876;9.372;2023-02-28T14:39:41;12.43;;;7.03;;
8098;SDS011;4092;47.876;9.372;2023-02-28T14:44:55;10.30;;;6.17;;
8098;SDS011;4092;47.876;9.372;2023-02-28T14:47:23;12.17;;;4.97;;
8098;SDS011;4092;47.876;9.372;2023-02-28T14:49:52;8.57;;;6.87;;
8098;SDS011;4092;47.876;9.372;2023-02-28T14:52:21;10.80;;;8.10;;
8098;SDS011;4092;47.876;9.372;2023-02-28T14:54:51;8.90;;;5.83;;
8098;SDS011;4092;47.876;9.372;2023-02-28T14:57:21;10.70;;;5.80;;
8098;SDS011;4092;47.876;9.372;2023-02-28T14:59:58;11.27;;;6.40;;
8098;SDS011;4092;47.876;9.372;2023-02-28T15:02:35;12.67;;;6.60;;
8098;SDS011;4092;47.876;9.372;2023-02-28T15:05:10;12.60;;;6.63;;
8098;SDS011;4092;47.876;9.372;2023-02-28T15:07:48;28.03;;;7.60;;
8098;SDS011;4092;47.876;9.372;2023-02-28T15:10:27;9.57;;;6.50;;
8098;SDS011;4092;47.876;9.372;2023-02-28T15:12:56;10.80;;;6.37;;
8098;SDS011;4092;47.876;9.372;2023-02-28T15:15:26;9.17;;;6.17;;
8098;SDS011;4092;47.876;9.372;2023-02-28T15:18:02;12.70;;;5.93;;
8098;SDS011;4092;47.876;9.372;2023-02-28T15:20:32;11.53;;;6.83;;
8098;SDS011;4092;47.876;9.372;2023-02-28T15:23:01;14.40;;;6.30;;
8098;SDS011;4092;47.876;9.372;2023-02-28T15:25:28;8.80;;;6.77;;
8098;SDS011;4092;47.876;9.372;2023-02-28T15:27:56;14.83;;;7.23;;
8098;SDS011;4092;47.876;9.372;2023-02-28T15:30:24;9.87;;;6.90;;
8098;SDS011;4092;47.876;9.372;2023-02-28T15:33:15;7.93;;;6.00;;
8098;SDS011;4092;47.876;9.372;2023-02-28T15:35:45;12.47;;;7.40;;
8098;SDS011;4092;47.876;9.372;2023-02-28T15:38:15;12.80;;;6.67;;
8098;SDS011;4092;47.876;9.372;2023-02-28T15:40:44;10.20;;;5.73;;
8098;SDS011;4092;47.876;9.372;2023-02-28T15:43:19;10.03;;;6.97;;
8098;SDS011;4092;47.876;9.372;2023-02-28T15:45:52;13.97;;;7.53;;
8098;SDS011;4092;47.876;9.372;2023-02-28T15:48:24;14.87;;;6.30;;
8098;SDS011;4092;47.876;9.372;2023-02-28T15:50:55;12.43;;;7.73;;
8098;SDS011;4092;47.876;9.372;2023-02-28T15:53:24;9.93;;;7.37;;
8098;SDS011;4092;47.876;9.372;2023-02-28T15:55:55;10.33;;;6.67;;
8098;SDS011;4092;47.876;9.372;2023-02-28T15:58:26;26.23;;;7.03;;
8098;SDS011;4092;47.876;9.372;2023-02-28T16:01:01;15.17;;;7.10;;
8098;SDS011;4092;47.876;9.372;2023-02-28T16:03:44;11.23;;;5.97;;
8098;SDS011;4092;47.876;9.372;2023-02-28T16:09:05;9.30;;;6.73;;
8098;SDS011;4092;47.876;9.372;2023-02-28T16:11:36;8.37;;;6.40;;
8098;SDS011;4092;47.876;9.372;2023-02-28T16:14:06;10.63;;;7.30;;
8098;SDS011;4092;47.876;9.372;2023-02-28T16:16:42;11.77;;;7.10;;
8098;SDS011;4092;47.876;9.372;2023-02-28T16:19:10;9.20;;;6.83;;